Terminal Aerodrome Forecast
Issued by NWS Wilmington, OH

Current Version | Previous Version | Graphics & Text | Print | Product List | Glossary On
Versions: 1 2 3 4 5 6 7 8 9 10 11 12 13 14 15 16 17 18 19
430
FTUS41 KILN 221136
TAFCVG
TAF
KCVG 221136Z 2212/2318 04012KT P6SM VCSH SCT025 BKN070 OVC200
      TEMPO 2212/2215 5SM -RA BKN025
     FM221600 05012G18KT P6SM VCSH OVC035
     FM221800 05012G20KT P6SM OVC040
     FM230300 05012KT P6SM OVC060
     FM231500 05012G18KT P6SM SCT200=

USA.gov is the U.S. government's official web portal to all federal, state and local government web resources and services.